createdAt,value
2018-03-22T00:00:28.814Z,101509.09
2018-03-22T00:02:56.292Z,101511.80
2018-03-22T00:05:23.766Z,101507.09
2018-03-22T00:07:51.299Z,101503.48
2018-03-22T00:10:18.831Z,101504.27
2018-03-22T00:12:46.350Z,101503.84
2018-03-22T00:15:13.851Z,101502.89
2018-03-22T00:17:41.315Z,101507.72
2018-03-22T00:20:08.812Z,101497.84
2018-03-22T00:22:39.320Z,101492.81
2018-03-22T00:25:06.818Z,101486.48
2018-03-22T00:27:34.271Z,101478.63
2018-03-22T00:30:01.786Z,101476.59
2018-03-22T00:32:29.283Z,101476.09
2018-03-22T00:34:56.752Z,101473.51
2018-03-22T00:37:24.291Z,101464.31
2018-03-22T00:39:51.765Z,101460.86
2018-03-22T00:42:19.232Z,101446.11
2018-03-22T00:44:46.700Z,101445.66
2018-03-22T00:47:14.180Z,101438.44
2018-03-22T00:49:41.651Z,101437.52
2018-03-22T00:52:09.116Z,101433.38
2018-03-22T00:54:36.605Z,101433.58
2018-03-22T00:57:04.151Z,101424.55
2018-03-22T00:59:31.723Z,101428.05
2018-03-22T01:01:59.273Z,101418.59
2018-03-22T01:04:26.832Z,101415.66
2018-03-22T01:06:54.295Z,101422.39
2018-03-22T01:09:21.789Z,101410.92
2018-03-22T01:11:49.311Z,101415.58
2018-03-22T01:14:16.861Z,101412.09
2018-03-22T01:16:44.341Z,101410.52
2018-03-22T01:19:11.794Z,101404.25
2018-03-22T01:21:39.279Z,101391.16
2018-03-22T01:24:06.746Z,101387.94
2018-03-22T01:26:34.201Z,101383.63
2018-03-22T01:29:01.704Z,101373.98
2018-03-22T01:31:29.468Z,101375.29
2018-03-22T01:33:57.018Z,101368.98
2018-03-22T01:36:24.494Z,101369.20
2018-03-22T01:38:51.970Z,101357.23
2018-03-22T01:41:19.425Z,101348.84
2018-03-22T01:43:46.910Z,101345.10
2018-03-22T01:46:14.400Z,101339.02
2018-03-22T01:48:41.864Z,101332.39
2018-03-22T01:51:09.337Z,101324.98
2018-03-22T01:53:36.829Z,101321.98
2018-03-22T01:56:04.290Z,101317.43
2018-03-22T01:58:31.799Z,101317.70
2018-03-22T02:00:59.263Z,101311.38
2018-03-22T02:03:26.737Z,101301.11
2018-03-22T02:05:54.222Z,101297.05
2018-03-22T02:08:21.685Z,101291.47
2018-03-22T02:10:49.160Z,101288.14
2018-03-22T02:13:16.634Z,101277.37
2018-03-22T02:15:44.119Z,101275.76
2018-03-22T02:18:11.661Z,101269.34
2018-03-22T02:20:39.117Z,101257.91
2018-03-22T02:23:06.585Z,101257.41
2018-03-22T02:25:34.049Z,101251.14
2018-03-22T02:28:01.542Z,101249.80
2018-03-22T02:30:28.999Z,101242.66
2018-03-22T02:32:56.595Z,101242.20
2018-03-22T02:35:24.073Z,101236.83
2018-03-22T02:37:51.639Z,101239.73
2018-03-22T02:40:19.105Z,101234.75
2018-03-22T02:42:46.695Z,101220.70
2018-03-22T02:45:14.155Z,101221.95
2018-03-22T02:47:41.614Z,101212.19
2018-03-22T02:50:09.119Z,101211.30
2018-03-22T02:52:37.294Z,101212.20
2018-03-22T02:55:04.854Z,101201.28
2018-03-22T02:57:32.430Z,101187.33
2018-03-22T02:59:59.893Z,101192.58
2018-03-22T03:02:27.431Z,101182.34
2018-03-22T03:04:54.932Z,101180.76
2018-03-22T03:07:22.394Z,101174.82
2018-03-22T03:09:49.854Z,101170.48
2018-03-22T03:12:17.362Z,101169.65
2018-03-22T03:14:44.838Z,101160.80
2018-03-22T03:17:12.327Z,101164.72
2018-03-22T03:19:39.814Z,101154.95
2018-03-22T03:22:07.267Z,101143.69
2018-03-22T03:24:34.837Z,101128.39
2018-03-22T03:27:02.308Z,101132.75
2018-03-22T03:29:29.868Z,101128.32
2018-03-22T03:31:57.341Z,101131.58
2018-03-22T03:34:24.888Z,101121.73
2018-03-22T03:36:52.362Z,101107.86
2018-03-22T03:39:19.905Z,101103.69
2018-03-22T03:41:47.402Z,101103.52
2018-03-22T03:44:14.913Z,101093.42
2018-03-22T03:46:42.486Z,101093.73
2018-03-22T03:49:10.046Z,101094.68
2018-03-22T03:51:37.522Z,101083.74
2018-03-22T03:54:04.984Z,101080.47
2018-03-22T03:56:32.502Z,101072.69
2018-03-22T03:58:59.973Z,101072.03
2018-03-22T04:01:27.431Z,101065.02
2018-03-22T04:03:54.918Z,101057.08
2018-03-22T04:06:22.390Z,101052.75
2018-03-22T04:08:49.936Z,101067.27
2018-03-22T04:11:17.417Z,101053.56
2018-03-22T04:13:44.871Z,101045.06
2018-03-22T04:16:12.346Z,101034.78
2018-03-22T04:18:39.871Z,101019.16
2018-03-22T04:21:07.343Z,101012.48
2018-03-22T04:23:34.802Z,101016.64
2018-03-22T04:26:02.265Z,101011.39
2018-03-22T04:28:29.784Z,101005.78
2018-03-22T04:30:57.258Z,100997.85
2018-03-22T04:33:24.735Z,101000.34
2018-03-22T04:35:52.211Z,100998.59
2018-03-22T04:38:19.661Z,100985.88
2018-03-22T04:40:47.139Z,100985.39
2018-03-22T04:43:14.700Z,100979.63
2018-03-22T04:45:42.159Z,100984.16
2018-03-22T04:48:09.709Z,100983.63
2018-03-22T04:50:37.178Z,100982.80
2018-03-22T04:53:04.753Z,100984.13
2018-03-22T04:55:32.291Z,100973.50
2018-03-22T04:57:59.820Z,100975.70
2018-03-22T05:00:27.306Z,100971.08
2018-03-22T05:02:54.766Z,100970.17
2018-03-22T05:05:22.250Z,100966.24
2018-03-22T05:07:49.766Z,100965.66
2018-03-22T05:10:17.234Z,100956.05
2018-03-22T05:12:44.735Z,100958.00
2018-03-22T05:15:12.300Z,100954.06
2018-03-22T05:17:39.797Z,100955.31
2018-03-22T05:20:07.307Z,100950.98
2018-03-22T05:22:34.864Z,100952.73
2018-03-22T05:25:02.444Z,100947.30
2018-03-22T05:27:29.964Z,100940.05
2018-03-22T05:29:57.418Z,100943.88
2018-03-22T05:32:24.897Z,100947.88
2018-03-22T05:34:52.385Z,100941.04
2018-03-22T05:37:19.848Z,100941.29
2018-03-22T05:39:47.323Z,100946.48
2018-03-22T05:42:14.911Z,100939.62
2018-03-22T05:44:42.469Z,100936.28
2018-03-22T05:47:09.960Z,100943.53
2018-03-22T05:49:37.431Z,100937.87
2018-03-22T05:52:04.891Z,100935.00
2018-03-22T05:54:32.484Z,100932.34
2018-03-22T05:56:59.948Z,100934.41
2018-03-22T05:59:27.501Z,100932.77
2018-03-22T06:01:54.962Z,100930.98
2018-03-22T06:04:22.427Z,100927.48
2018-03-22T06:06:49.919Z,100916.38
2018-03-22T06:09:17.387Z,100912.45
2018-03-22T06:11:44.942Z,100906.50
2018-03-22T06:14:12.434Z,100889.98
2018-03-22T06:16:39.963Z,100880.78
2018-03-22T06:19:07.414Z,100880.37
2018-03-22T06:21:34.894Z,100866.14
2018-03-22T06:24:02.356Z,100864.13
2018-03-22T06:26:29.838Z,100854.06
2018-03-22T06:28:57.333Z,100847.63
2018-03-22T06:31:24.803Z,100838.99
2018-03-22T06:33:52.314Z,100836.73
2018-03-22T06:36:19.791Z,100843.62
2018-03-22T06:38:47.246Z,100837.23
2018-03-22T06:41:14.725Z,100820.19
2018-03-22T06:43:42.182Z,100824.94
2018-03-22T06:46:09.652Z,100812.98
2018-03-22T06:48:37.136Z,100812.20
2018-03-22T06:51:04.626Z,100809.42
2018-03-22T06:53:32.198Z,100803.98
2018-03-22T06:55:59.745Z,100805.44
2018-03-22T06:58:27.240Z,100803.13
2018-03-22T07:00:54.755Z,100803.48
2018-03-22T07:03:22.239Z,100789.20
2018-03-22T07:05:49.698Z,100791.36
2018-03-22T07:08:17.175Z,100791.46
2018-03-22T07:10:44.690Z,100777.98
2018-03-22T07:13:12.254Z,100777.82
2018-03-22T07:15:39.717Z,100777.92
2018-03-22T07:18:07.239Z,100768.69
2018-03-22T07:20:34.725Z,100770.44
2018-03-22T07:23:02.188Z,100768.69
2018-03-22T07:25:29.757Z,100772.22
2018-03-22T07:27:57.251Z,100768.23
2018-03-22T07:30:24.759Z,100754.70
2018-03-22T07:32:52.237Z,100753.88
2018-03-22T07:35:19.774Z,100745.03
2018-03-22T07:37:47.257Z,100736.70
2018-03-22T07:40:14.715Z,100727.52
2018-03-22T07:42:42.203Z,100727.26
2018-03-22T07:45:09.686Z,100722.41
2018-03-22T07:47:37.153Z,100712.80
2018-03-22T07:50:04.626Z,100715.63
2018-03-22T07:52:32.092Z,100702.53
2018-03-22T07:54:59.572Z,100700.22
2018-03-22T07:57:27.051Z,100693.45
2018-03-22T07:59:54.540Z,100692.74
2018-03-22T08:02:21.990Z,100681.30
2018-03-22T08:04:49.485Z,100680.98
2018-03-22T08:07:16.978Z,100682.84
2018-03-22T08:09:44.453Z,100685.20
2018-03-22T08:12:11.928Z,100679.60
2018-03-22T08:14:39.414Z,100677.91
2018-03-22T08:17:06.871Z,100674.77
2018-03-22T08:19:34.434Z,100665.31
2018-03-22T08:22:01.991Z,100673.02
2018-03-22T08:24:29.448Z,100654.33
2018-03-22T08:26:56.906Z,100659.61
2018-03-22T08:29:24.464Z,100654.17
2018-03-22T08:31:51.917Z,100641.21
2018-03-22T08:34:19.382Z,100650.09
2018-03-22T08:36:46.885Z,100639.50
2018-03-22T08:39:14.340Z,100642.27
2018-03-22T08:41:41.807Z,100643.20
2018-03-22T08:44:09.290Z,100638.00
2018-03-22T08:46:36.806Z,100638.20
2018-03-22T08:49:04.307Z,100634.63
2018-03-22T08:51:31.875Z,100637.36
2018-03-22T08:53:59.342Z,100641.09
2018-03-22T08:56:26.894Z,100630.48
2018-03-22T08:58:54.357Z,100631.02
2018-03-22T09:01:21.820Z,100630.81
2018-03-22T09:03:49.318Z,100627.72
2018-03-22T09:06:16.778Z,100623.20
2018-03-22T09:08:44.235Z,100620.02
2018-03-22T09:11:11.737Z,100619.70
2018-03-22T09:13:39.202Z,100613.33
2018-03-22T09:16:06.669Z,100608.71
2018-03-22T09:18:34.160Z,100603.98
2018-03-22T09:21:01.630Z,100597.19
2018-03-22T09:23:29.105Z,100594.05
2018-03-22T09:25:56.593Z,100595.34
2018-03-22T09:28:24.192Z,100592.89
2018-03-22T09:30:51.717Z,100577.42
2018-03-22T09:33:19.190Z,100579.09
2018-03-22T09:35:46.646Z,100580.55
2018-03-22T09:38:14.150Z,100581.14
2018-03-22T09:40:41.642Z,100581.09
2018-03-22T09:43:09.108Z,100573.55
2018-03-22T09:45:36.610Z,100575.05
2018-03-22T09:48:04.178Z,100568.25
2018-03-22T09:50:31.686Z,100570.33
2018-03-22T09:52:59.191Z,100560.72
2018-03-22T09:55:26.657Z,100557.29
2018-03-22T09:57:54.134Z,100565.16
2018-03-22T10:00:21.626Z,100555.97
2018-03-22T10:02:49.130Z,100550.44
2018-03-22T10:05:16.567Z,100558.57
2018-03-22T10:07:44.042Z,100556.59
2018-03-22T10:10:11.506Z,100557.88
2018-03-22T10:12:38.979Z,100560.14
2018-03-22T10:15:06.471Z,100557.21
2018-03-22T10:17:33.943Z,100553.09
2018-03-22T10:20:01.414Z,100543.77
2018-03-22T10:22:28.902Z,100545.00
2018-03-22T10:24:56.361Z,100545.20
2018-03-22T10:27:23.879Z,100541.65
2018-03-22T10:29:51.358Z,100536.80
2018-03-22T10:32:18.818Z,100529.44
2018-03-22T10:34:46.284Z,100528.39
2018-03-22T10:37:13.912Z,100520.98
2018-03-22T10:39:41.375Z,100518.91
2018-03-22T10:42:08.880Z,100536.84
2018-03-22T10:44:36.450Z,100533.78
2018-03-22T10:47:03.922Z,100520.69
2018-03-22T10:49:31.382Z,100519.25
2018-03-22T10:51:58.856Z,100517.67
2018-03-22T10:54:26.331Z,100513.56
2018-03-22T10:56:53.805Z,100507.56
2018-03-22T10:59:21.284Z,100511.04
2018-03-22T11:01:54.404Z,100507.11
2018-03-22T11:04:21.941Z,100506.94
2018-03-22T11:06:49.424Z,100498.63
2018-03-22T11:09:16.895Z,100497.36
2018-03-22T11:11:44.407Z,100493.76
2018-03-22T11:14:12.016Z,100493.11
2018-03-22T11:16:39.473Z,100489.34
2018-03-22T11:19:06.958Z,100489.34
2018-03-22T11:21:34.425Z,100483.53
2018-03-22T11:24:01.882Z,100475.83
2018-03-22T11:26:29.355Z,100468.75
2018-03-22T11:28:56.819Z,100475.30
2018-03-22T11:31:24.290Z,100470.37
2018-03-22T11:33:51.782Z,100465.32
2018-03-22T11:36:19.305Z,100467.70
2018-03-22T11:38:46.763Z,100463.53
2018-03-22T11:41:14.278Z,100464.35
2018-03-22T11:43:41.767Z,100463.28
2018-03-22T11:46:09.361Z,100463.36
2018-03-22T11:48:36.985Z,100456.70
2018-03-22T11:51:04.545Z,100450.06
2018-03-22T11:53:32.026Z,100450.20
2018-03-22T11:55:59.526Z,100449.39
2018-03-22T11:58:26.984Z,100451.89
2018-03-22T12:00:54.447Z,100447.37
2018-03-22T12:03:21.938Z,100450.75
2018-03-22T12:05:49.405Z,100437.26
2018-03-22T12:08:16.896Z,100439.45
2018-03-22T12:10:44.398Z,100440.12
2018-03-22T12:13:11.866Z,100430.86
2018-03-22T12:15:39.326Z,100435.22
2018-03-22T12:18:06.815Z,100431.86
2018-03-22T12:20:34.285Z,100433.13
2018-03-22T12:23:01.755Z,100427.36
2018-03-22T12:25:29.305Z,100423.97
2018-03-22T12:27:56.868Z,100413.53
2018-03-22T12:30:24.337Z,100418.98
2018-03-22T12:32:51.937Z,100415.92
2018-03-22T12:35:19.393Z,100410.72
2018-03-22T12:37:46.850Z,100413.72
2018-03-22T12:40:14.382Z,100405.83
2018-03-22T12:42:41.917Z,100405.94
2018-03-22T12:45:09.407Z,100402.27
2018-03-22T12:47:36.916Z,100392.33
2018-03-22T12:50:04.402Z,100397.63
2018-03-22T12:52:31.876Z,100396.17
2018-03-22T12:54:59.368Z,100398.44
2018-03-22T12:57:26.866Z,100391.97
2018-03-22T12:59:54.338Z,100399.90
2018-03-22T13:02:21.794Z,100391.69
2018-03-22T13:04:49.278Z,100389.61
2018-03-22T13:07:16.731Z,100391.28
2018-03-22T13:09:44.210Z,100390.91
2018-03-22T13:12:11.683Z,100384.83
2018-03-22T13:14:39.147Z,100387.30
2018-03-22T13:17:06.724Z,100383.86
2018-03-22T13:19:34.190Z,100384.29
2018-03-22T13:22:01.667Z,100391.66
2018-03-22T13:24:29.196Z,100390.27
2018-03-22T13:26:56.755Z,100383.47
2018-03-22T13:29:24.223Z,100382.62
2018-03-22T13:31:51.702Z,100387.98
2018-03-22T13:34:19.185Z,100382.41
2018-03-22T13:36:46.642Z,100387.59
2018-03-22T13:39:14.149Z,100394.39
2018-03-22T13:41:41.662Z,100392.52
2018-03-22T13:44:09.137Z,100394.90
2018-03-22T13:46:36.704Z,100393.36
2018-03-22T13:49:04.240Z,100392.28
2018-03-22T13:51:31.711Z,100388.69
2018-03-22T13:53:59.225Z,100385.27
2018-03-22T13:56:26.723Z,100385.22
2018-03-22T13:58:54.178Z,100383.92
2018-03-22T14:01:21.655Z,100390.33
2018-03-22T14:03:49.118Z,100385.13
2018-03-22T14:06:16.618Z,100381.17
2018-03-22T14:08:44.081Z,100379.05
2018-03-22T14:11:11.554Z,100382.08
2018-03-22T14:13:39.124Z,100383.60
2018-03-22T14:16:06.604Z,100379.10
2018-03-22T14:18:34.121Z,100385.60
2018-03-22T14:21:01.637Z,100377.80
2018-03-22T14:23:29.136Z,100381.12
2018-03-22T14:25:56.609Z,100372.84
2018-03-22T14:28:24.095Z,100373.26
2018-03-22T14:30:51.567Z,100364.94
2018-03-22T14:33:19.055Z,100369.19
2018-03-22T14:35:46.570Z,100361.15
2018-03-22T14:38:14.026Z,100366.51
2018-03-22T14:40:41.485Z,100361.56
2018-03-22T14:43:08.979Z,100362.44
2018-03-22T14:45:36.456Z,100362.09
2018-03-22T14:48:03.935Z,100357.28
2018-03-22T14:50:31.422Z,100359.25
2018-03-22T14:52:58.911Z,100348.53
2018-03-22T14:55:26.409Z,100346.41
2018-03-22T14:57:53.864Z,100351.19
2018-03-22T15:00:21.355Z,100353.52
2018-03-22T15:02:48.822Z,100355.53
2018-03-22T15:05:16.278Z,100350.28
2018-03-22T15:07:43.767Z,100350.22
2018-03-22T15:10:11.246Z,100357.12
2018-03-22T15:12:38.718Z,100352.05
2018-03-22T15:15:06.271Z,100347.91
2018-03-22T15:17:33.741Z,100345.77
2018-03-22T15:20:01.223Z,100349.66
2018-03-22T15:22:28.794Z,100346.16
2018-03-22T15:24:56.267Z,100346.56
2018-03-22T15:27:23.735Z,100343.53
2018-03-22T15:29:51.325Z,100342.66
2018-03-22T15:32:18.823Z,100347.09
2018-03-22T15:34:46.288Z,100341.73
2018-03-22T15:37:13.796Z,100348.94
2018-03-22T15:39:41.286Z,100337.30
2018-03-22T15:42:08.742Z,100345.50
2018-03-22T15:44:36.221Z,100335.13
2018-03-22T15:47:03.711Z,100331.95
2018-03-22T15:49:31.231Z,100336.66
2018-03-22T15:51:58.743Z,100335.21
2018-03-22T15:54:26.205Z,100342.73
2018-03-22T15:56:53.677Z,100341.27
2018-03-22T15:59:21.210Z,100338.59
2018-03-22T16:01:48.728Z,100340.11
2018-03-22T16:04:16.184Z,100344.52
2018-03-22T16:06:43.683Z,100343.89
2018-03-22T16:09:11.134Z,100349.45
2018-03-22T16:11:38.595Z,100348.55
2018-03-22T16:14:06.073Z,100354.84
2018-03-22T16:16:33.552Z,100348.66
2018-03-22T16:19:01.026Z,100356.47
2018-03-22T16:21:28.514Z,100353.19
2018-03-22T16:23:56.067Z,100352.28
2018-03-22T16:26:23.533Z,100354.26
2018-03-22T16:28:51.042Z,100353.15
2018-03-22T16:31:18.508Z,100351.45
2018-03-22T16:33:45.980Z,100348.44
2018-03-22T16:36:13.454Z,100350.41
2018-03-22T16:38:40.955Z,100351.33
2018-03-22T16:41:08.446Z,100345.97
2018-03-22T16:43:35.966Z,100348.30
2018-03-22T16:46:03.540Z,100341.91
2018-03-22T16:48:31.116Z,100339.67
2018-03-22T16:50:58.698Z,100341.77
2018-03-22T16:53:26.179Z,100345.91
2018-03-22T16:55:53.706Z,100341.60
2018-03-22T16:58:21.175Z,100350.56
2018-03-22T17:00:48.686Z,100344.44
2018-03-22T17:03:16.150Z,100349.91
2018-03-22T17:05:43.622Z,100346.59
2018-03-22T17:08:11.711Z,100342.75
2018-03-22T17:10:39.191Z,100347.70
2018-03-22T17:13:06.689Z,100342.63
2018-03-22T17:15:34.244Z,100345.95
2018-03-22T17:18:01.720Z,100349.14
2018-03-22T17:20:29.175Z,100346.63
2018-03-22T17:22:56.810Z,100348.27
2018-03-22T17:25:24.296Z,100352.52
2018-03-22T17:27:51.790Z,100351.48
2018-03-22T17:30:19.298Z,100349.95
2018-03-22T17:32:46.756Z,100345.77
2018-03-22T17:35:14.309Z,100342.37
2018-03-22T17:37:41.879Z,100341.03
2018-03-22T17:40:09.445Z,100344.88
2018-03-22T17:42:37.541Z,100346.13
2018-03-22T17:45:05.028Z,100341.98
2018-03-22T17:47:32.561Z,100345.87
2018-03-22T17:50:00.043Z,100346.63
2018-03-22T17:52:27.642Z,100349.09
2018-03-22T17:54:55.134Z,100342.61
2018-03-22T17:57:22.596Z,100347.55
2018-03-22T17:59:50.075Z,100347.64
2018-03-22T18:02:17.671Z,100351.52
2018-03-22T18:04:45.249Z,100350.11
2018-03-22T18:07:12.801Z,100349.22
2018-03-22T18:09:40.351Z,100344.88
2018-03-22T18:12:07.829Z,100352.34
2018-03-22T18:14:35.299Z,100355.23
2018-03-22T18:17:02.822Z,100352.45
2018-03-22T18:19:30.315Z,100353.48
2018-03-22T18:21:57.787Z,100348.14
2018-03-22T18:24:25.294Z,100352.58
2018-03-22T18:26:52.755Z,100357.52
2018-03-22T18:29:20.302Z,100357.75
2018-03-22T18:31:47.778Z,100350.07
2018-03-22T18:34:15.322Z,100350.38
2018-03-22T18:36:42.947Z,100347.11
2018-03-22T18:39:10.417Z,100346.46
2018-03-22T18:41:37.910Z,100342.73
2018-03-22T18:44:05.378Z,100345.82
2018-03-22T18:46:32.855Z,100351.30
2018-03-22T18:49:00.343Z,100351.86
2018-03-22T18:51:27.807Z,100351.78
2018-03-22T18:53:55.285Z,100352.48
2018-03-22T18:56:22.785Z,100354.75
2018-03-22T18:58:50.275Z,100344.46
2018-03-22T19:01:17.745Z,100352.73
2018-03-22T19:03:45.218Z,100350.69
2018-03-22T19:06:12.709Z,100352.32
2018-03-22T19:08:40.176Z,100343.35
2018-03-22T19:11:07.664Z,100341.19
2018-03-22T19:13:35.204Z,100341.73
2018-03-22T19:16:02.754Z,100335.72
2018-03-22T19:18:30.248Z,100335.84
2018-03-22T19:20:57.820Z,100334.27
2018-03-22T19:23:25.338Z,100332.18
2018-03-22T19:25:52.896Z,100334.05
2018-03-22T19:28:20.351Z,100331.14
2018-03-22T19:30:47.853Z,100330.55
2018-03-22T19:33:15.315Z,100335.50
2018-03-22T19:35:42.847Z,100330.55
2018-03-22T19:38:10.333Z,100341.63
2018-03-22T19:40:37.899Z,100337.54
2018-03-22T19:43:05.370Z,100346.30
2018-03-22T19:45:32.886Z,100341.56
2018-03-22T19:48:00.354Z,100343.80
2018-03-22T19:50:27.846Z,100345.47
2018-03-22T19:52:55.306Z,100340.00
2018-03-22T19:55:22.842Z,100351.08
2018-03-22T19:57:50.641Z,100341.86
2018-03-22T20:00:18.158Z,100341.76
2018-03-22T20:02:45.616Z,100352.53
2018-03-22T20:05:13.091Z,100349.22
2018-03-22T20:07:40.605Z,100347.70
2018-03-22T20:10:08.175Z,100346.58
2018-03-22T20:12:35.879Z,100344.02
2018-03-22T20:15:03.362Z,100344.20
2018-03-22T20:17:30.831Z,100340.20
2018-03-22T20:19:58.399Z,100344.33
2018-03-22T20:22:25.963Z,100346.49
2018-03-22T20:24:53.454Z,100343.91
2018-03-22T20:27:20.969Z,100347.31
2018-03-22T20:29:48.426Z,100346.20
2018-03-22T20:32:15.998Z,100343.86
2018-03-22T20:34:43.475Z,100346.95
2018-03-22T20:37:10.952Z,100348.80
2018-03-22T20:39:38.468Z,100345.68
2018-03-22T20:42:05.939Z,100340.44
2018-03-22T20:44:33.423Z,100339.03
2018-03-22T20:47:00.887Z,100344.39
2018-03-22T20:49:28.349Z,100339.86
2018-03-22T20:51:55.867Z,100345.97
2018-03-22T20:54:23.419Z,100344.88
2018-03-22T20:56:51.359Z,100335.08
2018-03-22T20:59:18.826Z,100337.04
2018-03-22T21:01:46.308Z,100337.86
2018-03-22T21:04:13.851Z,100336.34
2018-03-22T21:06:41.339Z,100340.77
2018-03-22T21:09:08.927Z,100335.64
2018-03-22T21:11:36.390Z,100340.38
2018-03-22T21:14:03.859Z,100336.69
2018-03-22T21:16:31.353Z,100338.04
2018-03-22T21:18:58.814Z,100342.18
2018-03-22T21:21:26.266Z,100342.81
2018-03-22T21:23:53.786Z,100348.59
2018-03-22T21:26:21.260Z,100339.42
2018-03-22T21:28:48.714Z,100341.70
2018-03-22T21:31:16.190Z,100346.25
2018-03-22T21:33:43.781Z,100345.36
2018-03-22T21:36:11.256Z,100349.23
2018-03-22T21:38:38.783Z,100344.49
2018-03-22T21:41:06.237Z,100335.41
2018-03-22T21:43:33.695Z,100327.70
2018-03-22T21:46:01.275Z,100331.02
2018-03-22T21:48:28.747Z,100334.05
2018-03-22T21:51:01.224Z,100338.78
2018-03-22T21:53:28.718Z,100337.84
2018-03-22T21:55:56.231Z,100330.95
2018-03-22T21:58:23.754Z,100331.47
2018-03-22T22:00:51.214Z,100336.66
2018-03-22T22:03:18.678Z,100330.98
2018-03-22T22:05:46.160Z,100330.77
2018-03-22T22:08:13.632Z,100324.13
2018-03-22T22:10:41.237Z,100332.19
2018-03-22T22:13:08.711Z,100330.36
2018-03-22T22:15:36.202Z,100342.95
2018-03-22T22:18:03.671Z,100349.59
2018-03-22T22:20:31.145Z,100347.32
2018-03-22T22:22:58.646Z,100347.44
2018-03-22T22:25:26.106Z,100345.50
2018-03-22T22:27:53.567Z,100336.18
2018-03-22T22:30:21.066Z,100337.03
2018-03-22T22:32:49.454Z,100334.65
2018-03-22T22:35:16.902Z,100334.35
2018-03-22T22:37:44.378Z,100332.89
2018-03-22T22:40:11.932Z,100334.54
2018-03-22T22:42:39.433Z,100330.41
2018-03-22T22:45:06.887Z,100336.59
2018-03-22T22:47:34.403Z,100320.00
2018-03-22T22:50:01.915Z,100323.69
2018-03-22T22:52:29.368Z,100314.22
2018-03-22T22:54:56.927Z,100324.02
2018-03-22T22:57:24.402Z,100321.34
2018-03-22T22:59:51.882Z,100315.23
2018-03-22T23:02:19.331Z,100315.97
2018-03-22T23:04:46.787Z,100316.46
2018-03-22T23:07:14.266Z,100315.75
2018-03-22T23:09:41.721Z,100306.95
2018-03-22T23:12:09.286Z,100311.61
2018-03-22T23:14:36.774Z,100317.09
2018-03-22T23:17:04.308Z,100318.13
2018-03-22T23:19:31.857Z,100318.02
2018-03-22T23:21:59.433Z,100313.81
2018-03-22T23:24:26.890Z,100316.72
2018-03-22T23:26:54.364Z,100317.50
2018-03-22T23:29:21.846Z,100313.17
2018-03-22T23:31:49.318Z,100306.77
2018-03-22T23:34:16.775Z,100305.94
2018-03-22T23:36:44.260Z,100307.62
2018-03-22T23:39:11.723Z,100309.56
2018-03-22T23:41:39.230Z,100303.48
2018-03-22T23:44:06.770Z,100307.40
2018-03-22T23:46:34.247Z,100306.16
2018-03-22T23:49:01.752Z,100300.24
2018-03-22T23:51:29.224Z,100300.16
2018-03-22T23:53:56.686Z,100301.70
2018-03-22T23:56:24.162Z,100292.74
2018-03-22T23:58:51.617Z,100289.95
